sensor_id;sensor_type;location;lat;lon;timestamp;pressure;altitude;pressure_sealevel;temperature;humidity
46448;BME280;32145;50.390;30.778;2023-08-17T00:02:18;100644.81;;;20.25;65.65
46448;BME280;32145;50.390;30.778;2023-08-17T00:05:08;100652.53;;;20.23;65.84
46448;BME280;32145;50.390;30.778;2023-08-17T00:08:03;100651.19;;;20.20;65.69
46448;BME280;32145;50.390;30.778;2023-08-17T00:10:47;100647.88;;;20.18;65.96
46448;BME280;32145;50.390;30.778;2023-08-17T00:13:43;100648.97;;;20.17;65.91
46448;BME280;32145;50.390;30.778;2023-08-17T00:16:41;100653.91;;;20.15;66.12
46448;BME280;32145;50.390;30.778;2023-08-17T00:19:25;100660.28;;;20.11;66.13
46448;BME280;32145;50.390;30.778;2023-08-17T00:22:21;100653.97;;;20.05;66.29
46448;BME280;32145;50.390;30.778;2023-08-17T00:25:15;100654.50;;;19.96;66.29
46448;BME280;32145;50.390;30.778;2023-08-17T00:28:00;100650.66;;;19.92;66.59
46448;BME280;32145;50.390;30.778;2023-08-17T00:30:56;100654.50;;;19.91;66.56
46448;BME280;32145;50.390;30.778;2023-08-17T00:33:48;100656.72;;;19.89;66.54
46448;BME280;32145;50.390;30.778;2023-08-17T00:36:42;100658.09;;;19.87;66.77
46448;BME280;32145;50.390;30.778;2023-08-17T00:39:26;100653.97;;;19.84;66.94
46448;BME280;32145;50.390;30.778;2023-08-17T00:42:10;100657.81;;;19.83;66.93
46448;BME280;32145;50.390;30.778;2023-08-17T00:45:07;100660.03;;;19.81;67.04
46448;BME280;32145;50.390;30.778;2023-08-17T00:47:53;100658.94;;;19.77;67.15
46448;BME280;32145;50.390;30.778;2023-08-17T00:50:52;100665.25;;;19.77;67.13
46448;BME280;32145;50.390;30.778;2023-08-17T00:53:36;100664.97;;;19.74;67.39
46448;BME280;32145;50.390;30.778;2023-08-17T00:56:30;100650.66;;;19.71;67.21
46448;BME280;32145;50.390;30.778;2023-08-17T00:59:27;100666.38;;;19.71;67.19
46448;BME280;32145;50.390;30.778;2023-08-17T01:02:25;100658.38;;;19.69;67.24
46448;BME280;32145;50.390;30.778;2023-08-17T01:05:23;100668.28;;;19.65;67.42
46448;BME280;32145;50.390;30.778;2023-08-17T01:08:23;100659.22;;;19.60;67.32
46448;BME280;32145;50.390;30.778;2023-08-17T01:11:27;100661.13;;;19.54;67.59
46448;BME280;32145;50.390;30.778;2023-08-17T01:14:28;100667.19;;;19.51;67.84
46448;BME280;32145;50.390;30.778;2023-08-17T01:17:28;100665.53;;;19.44;67.68
46448;BME280;32145;50.390;30.778;2023-08-17T01:20:23;100661.41;;;19.37;67.65
46448;BME280;32145;50.390;30.778;2023-08-17T01:23:19;100663.31;;;19.31;67.80
46448;BME280;32145;50.390;30.778;2023-08-17T01:26:16;100662.75;;;19.24;67.80
46448;BME280;32145;50.390;30.778;2023-08-17T01:29:13;100666.88;;;19.21;67.95
46448;BME280;32145;50.390;30.778;2023-08-17T01:32:07;100674.31;;;19.21;68.44
46448;BME280;32145;50.390;30.778;2023-08-17T01:35:09;100668.81;;;19.21;68.46
46448;BME280;32145;50.390;30.778;2023-08-17T01:38:07;100663.03;;;19.17;68.18
46448;BME280;32145;50.390;30.778;2023-08-17T01:41:05;100676.22;;;19.15;68.36
46448;BME280;32145;50.390;30.778;2023-08-17T01:44:01;100672.09;;;19.12;68.39
46448;BME280;32145;50.390;30.778;2023-08-17T01:46:56;100667.16;;;19.09;68.46
46448;BME280;32145;50.390;30.778;2023-08-17T01:49:53;100670.97;;;19.08;68.52
46448;BME280;32145;50.390;30.778;2023-08-17T01:52:49;100662.19;;;19.06;68.57
46448;BME280;32145;50.390;30.778;2023-08-17T01:55:46;100670.69;;;19.10;68.79
46448;BME280;32145;50.390;30.778;2023-08-17T02:02:20;100672.09;;;19.17;68.91
46448;BME280;32145;50.390;30.778;2023-08-17T02:05:16;100673.22;;;19.16;68.83
46448;BME280;32145;50.390;30.778;2023-08-17T02:08:13;100673.22;;;19.16;68.64
46448;BME280;32145;50.390;30.778;2023-08-17T02:11:09;100675.38;;;19.14;68.85
46448;BME280;32145;50.390;30.778;2023-08-17T02:13:59;100667.16;;;19.14;68.96
46448;BME280;32145;50.390;30.778;2023-08-17T02:16:53;100669.91;;;19.14;68.83
46448;BME280;32145;50.390;30.778;2023-08-17T02:19:39;100677.03;;;19.15;69.12
46448;BME280;32145;50.390;30.778;2023-08-17T02:22:33;100679.25;;;19.13;69.03
46448;BME280;32145;50.390;30.778;2023-08-17T02:25:27;100677.59;;;19.12;68.75
46448;BME280;32145;50.390;30.778;2023-08-17T02:28:22;100677.59;;;19.12;69.12
46448;BME280;32145;50.390;30.778;2023-08-17T02:31:16;100677.59;;;19.12;68.97
46448;BME280;32145;50.390;30.778;2023-08-17T02:34:10;100680.34;;;19.12;68.91
46448;BME280;32145;50.390;30.778;2023-08-17T02:37:06;100690.22;;;19.13;68.95
46448;BME280;32145;50.390;30.778;2023-08-17T02:40:00;100681.16;;;19.08;68.81
46448;BME280;32145;50.390;30.778;2023-08-17T02:42:44;100680.31;;;19.07;69.02
46448;BME280;32145;50.390;30.778;2023-08-17T02:45:39;100683.63;;;19.09;68.98
46448;BME280;32145;50.390;30.778;2023-08-17T02:48:33;100679.78;;;19.10;68.80
46448;BME280;32145;50.390;30.778;2023-08-17T02:51:27;100683.09;;;19.12;69.09
46448;BME280;32145;50.390;30.778;2023-08-17T02:54:13;100682.78;;;19.14;68.93
46448;BME280;32145;50.390;30.778;2023-08-17T02:57:09;100681.41;;;19.11;68.61
46448;BME280;32145;50.390;30.778;2023-08-17T02:59:59;100681.41;;;19.11;68.75
46448;BME280;32145;50.390;30.778;2023-08-17T03:02:54;100691.88;;;19.09;68.47
46448;BME280;32145;50.390;30.778;2023-08-17T03:05:48;100691.31;;;19.07;68.53
46448;BME280;32145;50.390;30.778;2023-08-17T03:08:32;100688.00;;;19.05;68.73
46448;BME280;32145;50.390;30.778;2023-08-17T03:11:28;100687.41;;;19.03;68.60
46448;BME280;32145;50.390;30.778;2023-08-17T03:14:22;100687.41;;;19.03;68.68
46448;BME280;32145;50.390;30.778;2023-08-17T03:17:06;100691.28;;;19.02;68.72
46448;BME280;32145;50.390;30.778;2023-08-17T03:20:03;100690.16;;;19.03;69.04
46448;BME280;32145;50.390;30.778;2023-08-17T03:22:57;100683.31;;;19.05;68.75
46448;BME280;32145;50.390;30.778;2023-08-17T03:25:52;100692.94;;;19.08;68.50
46448;BME280;32145;50.390;30.778;2023-08-17T03:28:47;100689.66;;;19.11;68.62
46448;BME280;32145;50.390;30.778;2023-08-17T03:31:31;100691.34;;;19.12;68.73
46448;BME280;32145;50.390;30.778;2023-08-17T03:34:25;100688.03;;;19.15;68.64
46448;BME280;32145;50.390;30.778;2023-08-17T03:37:21;100692.72;;;19.25;68.49
46448;BME280;32145;50.390;30.778;2023-08-17T03:40:18;100682.03;;;19.29;68.53
46448;BME280;32145;50.390;30.778;2023-08-17T03:43:14;100696.88;;;19.38;68.23
46448;BME280;32145;50.390;30.778;2023-08-17T03:46:06;100697.44;;;19.66;68.26
46448;BME280;32145;50.390;30.778;2023-08-17T03:49:00;100691.63;;;20.30;67.53
46448;BME280;32145;50.390;30.778;2023-08-17T03:51:44;100690.03;;;20.85;65.85
46448;BME280;32145;50.390;30.778;2023-08-17T03:54:28;100694.66;;;21.05;65.18
46448;BME280;32145;50.390;30.778;2023-08-17T03:57:25;100696.91;;;21.38;64.33
46448;BME280;32145;50.390;30.778;2023-08-17T04:00:15;100698.19;;;21.86;63.23
46448;BME280;32145;50.390;30.778;2023-08-17T04:03:00;100689.31;;;22.19;61.99
46448;BME280;32145;50.390;30.778;2023-08-17T04:05:51;100686.59;;;22.43;61.01
46448;BME280;32145;50.390;30.778;2023-08-17T04:08:35;100690.53;;;22.61;60.41
46448;BME280;32145;50.390;30.778;2023-08-17T04:11:31;100690.75;;;22.65;59.84
46448;BME280;32145;50.390;30.778;2023-08-17T04:14:21;100689.59;;;22.22;60.02
46448;BME280;32145;50.390;30.778;2023-08-17T04:17:06;100693.31;;;21.78;60.86
46448;BME280;32145;50.390;30.778;2023-08-17T04:20:04;100689.63;;;21.53;61.54
46448;BME280;32145;50.390;30.778;2023-08-17T04:22:48;100699.09;;;21.41;61.65
46448;BME280;32145;50.390;30.778;2023-08-17T04:25:43;100705.25;;;21.28;61.95
46448;BME280;32145;50.390;30.778;2023-08-17T04:28:38;100696.75;;;21.19;62.18
46448;BME280;32145;50.390;30.778;2023-08-17T04:31:22;100697.31;;;21.16;62.20
46448;BME280;32145;50.390;30.778;2023-08-17T04:34:13;100702.56;;;21.17;62.15
46448;BME280;32145;50.390;30.778;2023-08-17T04:36:58;100712.47;;;21.18;62.25
46448;BME280;32145;50.390;30.778;2023-08-17T04:39:42;100708.34;;;21.16;62.23
46448;BME280;32145;50.390;30.778;2023-08-17T04:42:26;100708.63;;;21.19;62.17
46448;BME280;32145;50.390;30.778;2023-08-17T04:45:22;100712.97;;;21.25;62.06
46448;BME280;32145;50.390;30.778;2023-08-17T04:48:12;100703.31;;;21.28;61.99
46448;BME280;32145;50.390;30.778;2023-08-17T04:50:56;100709.03;;;21.37;61.99
46448;BME280;32145;50.390;30.778;2023-08-17T04:53:54;100706.50;;;21.46;61.88
46448;BME280;32145;50.390;30.778;2023-08-17T04:56:38;100714.75;;;21.51;61.70
46448;BME280;32145;50.390;30.778;2023-08-17T04:59:35;100707.25;;;21.57;61.30
46448;BME280;32145;50.390;30.778;2023-08-17T05:02:29;100705.84;;;21.59;61.44
46448;BME280;32145;50.390;30.778;2023-08-17T05:05:24;100713.75;;;21.71;61.35
46448;BME280;32145;50.390;30.778;2023-08-17T05:08:18;100712.06;;;21.81;61.31
46448;BME280;32145;50.390;30.778;2023-08-17T05:11:13;100723.31;;;21.84;60.99
46448;BME280;32145;50.390;30.778;2023-08-17T05:14:08;100718.28;;;21.92;61.03
46448;BME280;32145;50.390;30.778;2023-08-17T05:17:02;100716.56;;;22.01;60.63
46448;BME280;32145;50.390;30.778;2023-08-17T05:19:57;100712.34;;;22.09;60.53
46448;BME280;32145;50.390;30.778;2023-08-17T05:22:51;100720.00;;;22.17;60.51
46448;BME280;32145;50.390;30.778;2023-08-17T05:25:48;100723.25;;;22.24;60.44
46448;BME280;32145;50.390;30.778;2023-08-17T05:28:45;100727.53;;;22.36;60.40
46448;BME280;32145;50.390;30.778;2023-08-17T05:31:39;100714.72;;;22.45;60.36
46448;BME280;32145;50.390;30.778;2023-08-17T05:34:34;100714.53;;;22.66;59.84
46448;BME280;32145;50.390;30.778;2023-08-17T05:37:28;100707.97;;;22.81;59.61
46448;BME280;32145;50.390;30.778;2023-08-17T05:40:22;100707.69;;;22.83;59.18
46448;BME280;32145;50.390;30.778;2023-08-17T05:43:19;100709.84;;;22.86;59.15
46448;BME280;32145;50.390;30.778;2023-08-17T05:46:16;100712.47;;;22.96;59.06
46448;BME280;32145;50.390;30.778;2023-08-17T05:49:13;100709.56;;;23.07;58.66
46448;BME280;32145;50.390;30.778;2023-08-17T05:52:09;100710.25;;;23.17;58.27
46448;BME280;32145;50.390;30.778;2023-08-17T05:55:06;100710.09;;;23.28;58.18
46448;BME280;32145;50.390;30.778;2023-08-17T05:58:02;100703.31;;;23.39;57.83
46448;BME280;32145;50.390;30.778;2023-08-17T06:01:04;100707.03;;;23.49;57.80
46448;BME280;32145;50.390;30.778;2023-08-17T06:04:02;100706.88;;;23.59;57.30
46448;BME280;32145;50.390;30.778;2023-08-17T06:06:58;100710.91;;;23.67;57.23
46448;BME280;32145;50.390;30.778;2023-08-17T06:09:54;100715.53;;;23.72;56.66
46448;BME280;32145;50.390;30.778;2023-08-17T06:12:51;100707.88;;;23.83;56.39
46448;BME280;32145;50.390;30.778;2023-08-17T06:15:47;100711.09;;;24.04;55.91
46448;BME280;32145;50.390;30.778;2023-08-17T06:18:44;100711.16;;;24.18;55.09
46448;BME280;32145;50.390;30.778;2023-08-17T06:21:39;100710.88;;;24.33;55.03
46448;BME280;32145;50.390;30.778;2023-08-17T06:24:33;100701.72;;;24.47;54.54
46448;BME280;32145;50.390;30.778;2023-08-17T06:27:28;100704.91;;;24.54;54.41
46448;BME280;32145;50.390;30.778;2023-08-17T06:30:22;100711.47;;;24.58;54.56
46448;BME280;32145;50.390;30.778;2023-08-17T06:33:19;100710.34;;;24.59;54.18
46448;BME280;32145;50.390;30.778;2023-08-17T06:36:15;100708.50;;;24.69;53.92
46448;BME280;32145;50.390;30.778;2023-08-17T06:39:13;100716.28;;;24.81;53.57
46448;BME280;32145;50.390;30.778;2023-08-17T06:42:09;100708.16;;;24.84;53.18
46448;BME280;32145;50.390;30.778;2023-08-17T06:45:07;100716.91;;;24.92;53.00
46448;BME280;32145;50.390;30.778;2023-08-17T06:48:03;100707.44;;;25.07;52.72
46448;BME280;32145;50.390;30.778;2023-08-17T06:50:59;100712.56;;;25.14;52.96
46448;BME280;32145;50.390;30.778;2023-08-17T06:53:56;100715.22;;;25.19;52.75
46448;BME280;32145;50.390;30.778;2023-08-17T06:56:54;100718.47;;;25.35;52.32
46448;BME280;32145;50.390;30.778;2023-08-17T06:59:50;100713.47;;;25.46;51.43
46448;BME280;32145;50.390;30.778;2023-08-17T07:02:46;100716.53;;;25.58;51.17
46448;BME280;32145;50.390;30.778;2023-08-17T07:05:43;100712.19;;;25.66;50.73
46448;BME280;32145;50.390;30.778;2023-08-17T07:08:39;100707.66;;;25.70;50.53
46448;BME280;32145;50.390;30.778;2023-08-17T07:11:35;100710.06;;;25.72;50.01
46448;BME280;32145;50.390;30.778;2023-08-17T07:14:34;100713.75;;;25.81;50.46
46448;BME280;32145;50.390;30.778;2023-08-17T07:17:32;100711.06;;;25.99;50.28
46448;BME280;32145;50.390;30.778;2023-08-17T07:20:26;100706.38;;;26.08;49.58
46448;BME280;32145;50.390;30.778;2023-08-17T07:23:20;100705.09;;;26.15;48.75
46448;BME280;32145;50.390;30.778;2023-08-17T07:26:14;100703.31;;;26.19;48.06
46448;BME280;32145;50.390;30.778;2023-08-17T07:29:08;100698.66;;;26.28;48.26
46448;BME280;32145;50.390;30.778;2023-08-17T07:32:04;100703.28;;;26.42;47.65
46448;BME280;32145;50.390;30.778;2023-08-17T07:34:58;100704.78;;;26.48;47.08
46448;BME280;32145;50.390;30.778;2023-08-17T07:37:53;100698.06;;;26.49;46.91
46448;BME280;32145;50.390;30.778;2023-08-17T07:40:49;100703.66;;;26.67;47.64
46448;BME280;32145;50.390;30.778;2023-08-17T07:43:45;100692.25;;;26.77;46.43
46448;BME280;32145;50.390;30.778;2023-08-17T07:46:40;100694.72;;;26.79;45.73
46448;BME280;32145;50.390;30.778;2023-08-17T07:49:36;100696.19;;;26.76;45.67
46448;BME280;32145;50.390;30.778;2023-08-17T07:52:30;100702.88;;;26.84;46.35
46448;BME280;32145;50.390;30.778;2023-08-17T07:55:26;100702.41;;;26.90;45.93
46448;BME280;32145;50.390;30.778;2023-08-17T07:58:20;100707.31;;;26.94;45.29
46448;BME280;32145;50.390;30.778;2023-08-17T08:01:08;100708.34;;;26.98;44.83
46448;BME280;32145;50.390;30.778;2023-08-17T08:04:05;100694.56;;;26.93;44.29
46448;BME280;32145;50.390;30.778;2023-08-17T08:07:00;100701.75;;;26.94;45.03
46448;BME280;32145;50.390;30.778;2023-08-17T08:09:57;100697.88;;;27.12;44.88
46448;BME280;32145;50.390;30.778;2023-08-17T08:12:53;100707.22;;;27.25;44.29
46448;BME280;32145;50.390;30.778;2023-08-17T08:15:49;100710.50;;;27.10;44.15
46448;BME280;32145;50.390;30.778;2023-08-17T08:18:46;100699.81;;;26.94;44.23
46448;BME280;32145;50.390;30.778;2023-08-17T08:21:42;100694.94;;;27.18;44.18
46448;BME280;32145;50.390;30.778;2023-08-17T08:24:40;100685.75;;;27.44;43.35
46448;BME280;32145;50.390;30.778;2023-08-17T08:27:36;100693.59;;;27.59;42.53
46448;BME280;32145;50.390;30.778;2023-08-17T08:30:32;100701.94;;;27.77;42.62
46448;BME280;32145;50.390;30.778;2023-08-17T08:33:29;100693.06;;;27.84;42.44
46448;BME280;32145;50.390;30.778;2023-08-17T08:36:25;100696.72;;;27.58;41.88
46448;BME280;32145;50.390;30.778;2023-08-17T08:39:22;100692.44;;;27.60;41.93
46448;BME280;32145;50.390;30.778;2023-08-17T08:42:20;100700.97;;;27.73;41.48
46448;BME280;32145;50.390;30.778;2023-08-17T08:45:17;100694.22;;;27.91;41.77
46448;BME280;32145;50.390;30.778;2023-08-17T08:48:13;100696.47;;;28.07;41.69
46448;BME280;32145;50.390;30.778;2023-08-17T08:51:11;100689.34;;;28.18;41.42
46448;BME280;32145;50.390;30.778;2023-08-17T08:54:13;100698.69;;;28.23;40.93
46448;BME280;32145;50.390;30.778;2023-08-17T08:57:13;100695.91;;;28.23;40.53
46448;BME280;32145;50.390;30.778;2023-08-17T09:00:12;100699.78;;;28.39;40.38
46448;BME280;32145;50.390;30.778;2023-08-17T09:03:08;100694.31;;;28.52;40.54
46448;BME280;32145;50.390;30.778;2023-08-17T09:06:05;100688.53;;;28.57;39.97
46448;BME280;32145;50.390;30.778;2023-08-17T09:09:02;100688.09;;;28.76;40.42
46448;BME280;32145;50.390;30.778;2023-08-17T09:11:58;100680.59;;;28.89;40.04
46448;BME280;32145;50.390;30.778;2023-08-17T09:14:54;100688.34;;;28.84;39.57
46448;BME280;32145;50.390;30.778;2023-08-17T09:17:52;100675.63;;;28.74;38.86
46448;BME280;32145;50.390;30.778;2023-08-17T09:20:51;100679.53;;;28.81;39.22
46448;BME280;32145;50.390;30.778;2023-08-17T09:23:50;100678.97;;;28.88;39.42
46448;BME280;32145;50.390;30.778;2023-08-17T09:26:48;100679.41;;;28.99;39.89
46448;BME280;32145;50.390;30.778;2023-08-17T09:29:43;100679.13;;;29.13;39.30
46448;BME280;32145;50.390;30.778;2023-08-17T09:32:38;100677.56;;;29.25;39.49
46448;BME280;32145;50.390;30.778;2023-08-17T09:35:33;100685.53;;;29.35;39.02
46448;BME280;32145;50.390;30.778;2023-08-17T09:38:28;100672.50;;;29.39;38.64
46448;BME280;32145;50.390;30.778;2023-08-17T09:41:22;100671.34;;;29.40;38.33
46448;BME280;32145;50.390;30.778;2023-08-17T09:44:17;100670.28;;;29.32;38.12
46448;BME280;32145;50.390;30.778;2023-08-17T09:47:11;100676.25;;;29.43;38.77
46448;BME280;32145;50.390;30.778;2023-08-17T09:50:06;100676.94;;;29.40;38.13
46448;BME280;32145;50.390;30.778;2023-08-17T09:53:02;100678.06;;;29.27;38.34
46448;BME280;32145;50.390;30.778;2023-08-17T09:55:59;100658.03;;;29.25;38.71
46448;BME280;32145;50.390;30.778;2023-08-17T09:58:50;100666.00;;;29.35;38.71
46448;BME280;32145;50.390;30.778;2023-08-17T10:01:45;100668.22;;;29.42;39.51
46448;BME280;32145;50.390;30.778;2023-08-17T10:04:36;100659.66;;;29.26;38.88
46448;BME280;32145;50.390;30.778;2023-08-17T10:07:35;100670.91;;;28.96;39.23
46448;BME280;32145;50.390;30.778;2023-08-17T10:10:35;100663.22;;;28.62;39.99
46448;BME280;32145;50.390;30.778;2023-08-17T10:13:35;100668.72;;;28.50;40.32
46448;BME280;32145;50.390;30.778;2023-08-17T10:16:28;100665.09;;;28.28;40.49
46448;BME280;32145;50.390;30.778;2023-08-17T10:19:37;100661.47;;;28.27;39.64
46448;BME280;32145;50.390;30.778;2023-08-17T10:22:39;100652.69;;;28.47;39.81
46448;BME280;32145;50.390;30.778;2023-08-17T10:25:40;100646.16;;;28.64;39.99
46448;BME280;32145;50.390;30.778;2023-08-17T10:28:37;100653.81;;;28.76;40.53
46448;BME280;32145;50.390;30.778;2023-08-17T10:31:34;100656.53;;;28.63;40.23
46448;BME280;32145;50.390;30.778;2023-08-17T10:34:28;100651.25;;;28.40;40.00
46448;BME280;32145;50.390;30.778;2023-08-17T10:37:23;100657.16;;;28.39;39.59
46448;BME280;32145;50.390;30.778;2023-08-17T10:40:25;100658.00;;;28.30;39.51
46448;BME280;32145;50.390;30.778;2023-08-17T10:43:20;100648.06;;;28.51;39.09
46448;BME280;32145;50.390;30.778;2023-08-17T10:46:15;100641.81;;;28.75;39.68
46448;BME280;32145;50.390;30.778;2023-08-17T10:49:24;100646.09;;;29.03;39.79
46448;BME280;32145;50.390;30.778;2023-08-17T10:52:29;100646.28;;;29.31;39.26
46448;BME280;32145;50.390;30.778;2023-08-17T10:55:36;100650.72;;;29.54;38.55
46448;BME280;32145;50.390;30.778;2023-08-17T10:58:34;100652.25;;;29.64;38.38
46448;BME280;32145;50.390;30.778;2023-08-17T11:01:33;100654.22;;;29.63;38.08
46448;BME280;32145;50.390;30.778;2023-08-17T11:04:32;100634.69;;;29.76;38.01
46448;BME280;32145;50.390;30.778;2023-08-17T11:07:27;100639.38;;;29.96;38.00
46448;BME280;32145;50.390;30.778;2023-08-17T11:10:28;100648.00;;;30.04;37.38
46448;BME280;32145;50.390;30.778;2023-08-17T11:13:23;100649.34;;;29.60;38.41
46448;BME280;32145;50.390;30.778;2023-08-17T11:16:19;100637.25;;;29.35;38.09
46448;BME280;32145;50.390;30.778;2023-08-17T11:19:13;100623.06;;;29.40;38.02
46448;BME280;32145;50.390;30.778;2023-08-17T11:22:09;100628.16;;;29.59;38.11
46448;BME280;32145;50.390;30.778;2023-08-17T11:24:58;100622.84;;;29.45;37.84
46448;BME280;32145;50.390;30.778;2023-08-17T11:27:54;100630.59;;;29.27;38.57
46448;BME280;32145;50.390;30.778;2023-08-17T11:30:56;100627.44;;;28.94;38.62
46448;BME280;32145;50.390;30.778;2023-08-17T11:33:54;100633.69;;;28.91;39.21
46448;BME280;32145;50.390;30.778;2023-08-17T11:36:50;100625.56;;;29.20;38.58
46448;BME280;32145;50.390;30.778;2023-08-17T11:39:46;100614.94;;;29.47;37.67
46448;BME280;32145;50.390;30.778;2023-08-17T11:42:43;100623.75;;;29.70;37.63
46448;BME280;32145;50.390;30.778;2023-08-17T11:45:39;100621.47;;;29.97;37.66
46448;BME280;32145;50.390;30.778;2023-08-17T11:48:36;100614.03;;;30.14;37.72
46448;BME280;32145;50.390;30.778;2023-08-17T11:51:34;100621.09;;;29.87;37.11
46448;BME280;32145;50.390;30.778;2023-08-17T11:54:32;100626.53;;;29.58;38.36
46448;BME280;32145;50.390;30.778;2023-08-17T11:57:29;100616.28;;;29.62;37.99
46448;BME280;32145;50.390;30.778;2023-08-17T12:00:26;100603.97;;;29.76;37.79
46448;BME280;32145;50.390;30.778;2023-08-17T12:03:22;100609.81;;;29.83;37.33
46448;BME280;32145;50.390;30.778;2023-08-17T12:06:19;100604.44;;;29.90;37.68
46448;BME280;32145;50.390;30.778;2023-08-17T12:09:17;100610.84;;;29.78;37.48
46448;BME280;32145;50.390;30.778;2023-08-17T12:12:17;100604.19;;;29.70;37.35
46448;BME280;32145;50.390;30.778;2023-08-17T12:15:14;100610.97;;;29.94;37.08
46448;BME280;32145;50.390;30.778;2023-08-17T12:18:10;100611.91;;;29.99;36.94
46448;BME280;32145;50.390;30.778;2023-08-17T12:21:06;100591.63;;;29.89;37.20
46448;BME280;32145;50.390;30.778;2023-08-17T12:24:04;100601.31;;;29.92;36.99
46448;BME280;32145;50.390;30.778;2023-08-17T12:27:02;100608.03;;;29.91;37.23
46448;BME280;32145;50.390;30.778;2023-08-17T12:29:58;100594.22;;;29.94;37.09
46448;BME280;32145;50.390;30.778;2023-08-17T12:32:52;100592.34;;;29.86;37.70
46448;BME280;32145;50.390;30.778;2023-08-17T12:35:47;100596.06;;;29.90;37.45
46448;BME280;32145;50.390;30.778;2023-08-17T12:38:43;100595.47;;;30.09;37.63
46448;BME280;32145;50.390;30.778;2023-08-17T12:41:39;100593.28;;;30.15;37.12
46448;BME280;32145;50.390;30.778;2023-08-17T12:44:37;100603.66;;;30.15;37.10
46448;BME280;32145;50.390;30.778;2023-08-17T12:47:33;100601.09;;;30.22;37.44
46448;BME280;32145;50.390;30.778;2023-08-17T12:50:29;100591.19;;;30.25;36.76
46448;BME280;32145;50.390;30.778;2023-08-17T12:53:26;100583.50;;;30.34;36.92
46448;BME280;32145;50.390;30.778;2023-08-17T12:56:22;100576.63;;;30.31;36.64
46448;BME280;32145;50.390;30.778;2023-08-17T12:59:18;100575.22;;;30.25;37.96
46448;BME280;32145;50.390;30.778;2023-08-17T13:02:14;100585.13;;;30.10;36.90
46448;BME280;32145;50.390;30.778;2023-08-17T13:05:08;100577.06;;;29.83;36.84
46448;BME280;32145;50.390;30.778;2023-08-17T13:08:03;100580.22;;;29.82;37.26
46448;BME280;32145;50.390;30.778;2023-08-17T13:10:57;100574.31;;;29.96;37.29
46448;BME280;32145;50.390;30.778;2023-08-17T13:13:41;100570.66;;;30.08;37.07
46448;BME280;32145;50.390;30.778;2023-08-17T13:16:38;100566.50;;;30.14;37.06
46448;BME280;32145;50.390;30.778;2023-08-17T13:19:35;100570.78;;;30.12;36.93
46448;BME280;32145;50.390;30.778;2023-08-17T13:22:32;100572.19;;;30.05;36.98
46448;BME280;32145;50.390;30.778;2023-08-17T13:25:28;100575.78;;;29.93;37.21
46448;BME280;32145;50.390;30.778;2023-08-17T13:28:23;100568.22;;;29.94;37.58
46448;BME280;32145;50.390;30.778;2023-08-17T13:31:17;100567.66;;;29.88;36.89
46448;BME280;32145;50.390;30.778;2023-08-17T13:34:14;100576.28;;;29.95;37.74
46448;BME280;32145;50.390;30.778;2023-08-17T13:37:11;100567.41;;;30.06;37.37
46448;BME280;32145;50.390;30.778;2023-08-17T13:40:08;100562.41;;;30.24;37.38
46448;BME280;32145;50.390;30.778;2023-08-17T13:43:05;100572.75;;;30.36;36.56
46448;BME280;32145;50.390;30.778;2023-08-17T13:46:01;100567.13;;;30.48;36.44
46448;BME280;32145;50.390;30.778;2023-08-17T13:48:58;100573.94;;;30.35;35.98
46448;BME280;32145;50.390;30.778;2023-08-17T13:51:54;100564.28;;;30.20;36.31
46448;BME280;32145;50.390;30.778;2023-08-17T13:54:52;100563.94;;;30.21;36.14
46448;BME280;32145;50.390;30.778;2023-08-17T13:57:48;100571.56;;;30.37;36.86
46448;BME280;32145;50.390;30.778;2023-08-17T14:00:44;100573.22;;;30.38;36.38
46448;BME280;32145;50.390;30.778;2023-08-17T14:03:41;100572.41;;;30.38;35.70
46448;BME280;32145;50.390;30.778;2023-08-17T14:06:37;100568.22;;;30.44;35.96
46448;BME280;32145;50.390;30.778;2023-08-17T14:09:33;100570.50;;;30.54;36.18
46448;BME280;32145;50.390;30.778;2023-08-17T14:12:31;100552.59;;;30.71;35.75
46448;BME280;32145;50.390;30.778;2023-08-17T14:15:25;100556.81;;;30.78;35.83
46448;BME280;32145;50.390;30.778;2023-08-17T14:18:20;100554.50;;;30.67;36.48
46448;BME280;32145;50.390;30.778;2023-08-17T14:21:14;100562.25;;;30.45;36.54
46448;BME280;32145;50.390;30.778;2023-08-17T14:24:08;100551.56;;;30.10;36.66
46448;BME280;32145;50.390;30.778;2023-08-17T14:27:05;100559.50;;;29.83;37.44
46448;BME280;32145;50.390;30.778;2023-08-17T14:30:03;100561.03;;;29.80;36.96
46448;BME280;32145;50.390;30.778;2023-08-17T14:32:59;100550.19;;;29.91;37.28
46448;BME280;32145;50.390;30.778;2023-08-17T14:35:56;100553.44;;;30.06;36.85
46448;BME280;32145;50.390;30.778;2023-08-17T14:38:52;100548.56;;;30.15;36.98
46448;BME280;32145;50.390;30.778;2023-08-17T14:41:48;100553.31;;;30.15;37.46
46448;BME280;32145;50.390;30.778;2023-08-17T14:44:45;100549.00;;;30.05;36.73
46448;BME280;32145;50.390;30.778;2023-08-17T14:47:42;100549.50;;;29.94;36.42
46448;BME280;32145;50.390;30.778;2023-08-17T14:50:39;100548.78;;;29.85;37.07
46448;BME280;32145;50.390;30.778;2023-08-17T14:53:35;100545.97;;;29.60;37.37
46448;BME280;32145;50.390;30.778;2023-08-17T14:56:29;100546.22;;;29.55;37.73
46448;BME280;32145;50.390;30.778;2023-08-17T14:59:23;100540.41;;;29.60;37.75
46448;BME280;32145;50.390;30.778;2023-08-17T15:02:18;100540.16;;;29.65;37.69
46448;BME280;32145;50.390;30.778;2023-08-17T15:05:14;100542.59;;;29.67;37.20
46448;BME280;32145;50.390;30.778;2023-08-17T15:08:08;100537.03;;;29.79;37.74